createdAt,value
2019-04-03T00:00:58.546Z,98520.63
2019-04-03T00:03:25.283Z,98521.02
2019-04-03T00:05:51.948Z,98521.83
2019-04-03T00:08:18.643Z,98516.80
2019-04-03T00:10:45.425Z,98513.14
2019-04-03T00:13:12.037Z,98504.48
2019-04-03T00:15:38.706Z,98507.44
2019-04-03T00:18:05.491Z,98506.87
2019-04-03T00:20:32.158Z,98503.08
2019-04-03T00:22:58.850Z,98502.64
2019-04-03T00:25:25.631Z,98506.54
2019-04-03T00:27:52.772Z,98507.98
2019-04-03T00:30:21.872Z,98506.78
2019-04-03T00:32:48.371Z,98504.63
2019-04-03T00:35:15.033Z,98509.94
2019-04-03T00:37:41.823Z,98513.29
2019-04-03T00:40:08.596Z,98509.34
2019-04-03T00:42:35.383Z,98509.59
2019-04-03T00:45:24.535Z,98509.98
2019-04-03T00:47:51.866Z,98514.09
2019-04-03T00:50:18.634Z,98516.25
2019-04-03T00:52:45.448Z,98516.92
2019-04-03T00:55:12.196Z,98513.81
2019-04-03T00:57:38.996Z,98511.94
2019-04-03T01:00:11.643Z,98501.73
2019-04-03T01:02:38.319Z,98504.57
2019-04-03T01:05:05.394Z,98504.75
2019-04-03T01:07:32.173Z,98506.51
2019-04-03T01:09:59.603Z,98506.83
2019-04-03T01:12:26.968Z,98511.85
2019-04-03T01:14:54.376Z,98507.83
2019-04-03T01:17:21.266Z,98502.14
2019-04-03T01:19:48.136Z,98505.10
2019-04-03T01:22:14.773Z,98515.55
2019-04-03T01:24:41.929Z,98507.09
2019-04-03T01:27:11.175Z,98508.69
2019-04-03T01:29:37.382Z,98495.98
2019-04-03T01:32:04.166Z,98492.63
2019-04-03T01:34:30.861Z,98488.38
2019-04-03T01:36:57.837Z,98475.77
2019-04-03T01:39:24.651Z,98472.08
2019-04-03T01:41:52.081Z,98485.31
2019-04-03T01:44:18.843Z,98478.91
2019-04-03T01:46:45.446Z,98482.88
2019-04-03T01:49:12.966Z,98476.37
2019-04-03T01:51:39.661Z,98466.61
2019-04-03T01:54:06.443Z,98472.64
2019-04-03T01:56:35.201Z,98471.52
2019-04-03T01:59:01.987Z,98469.91
2019-04-03T02:01:28.787Z,98470.53
2019-04-03T02:03:55.529Z,98468.62
2019-04-03T02:06:22.284Z,98470.73
2019-04-03T02:08:48.911Z,98464.13
2019-04-03T02:11:16.775Z,98459.79
2019-04-03T02:13:44.315Z,98460.16
2019-04-03T02:16:11.151Z,98450.20
2019-04-03T02:18:37.950Z,98446.13
2019-04-03T02:21:04.748Z,98447.38
2019-04-03T02:23:31.543Z,98441.53
2019-04-03T02:25:58.320Z,98433.11
2019-04-03T02:28:25.099Z,98432.55
2019-04-03T02:30:51.905Z,98430.20
2019-04-03T02:33:18.694Z,98420.55
2019-04-03T02:35:45.827Z,98410.25
2019-04-03T02:38:12.526Z,98416.09
2019-04-03T02:40:39.375Z,98406.13
2019-04-03T02:43:06.033Z,98405.23
2019-04-03T02:45:33.259Z,98407.67
2019-04-03T02:47:59.949Z,98408.95
2019-04-03T02:50:26.778Z,98411.66
2019-04-03T02:52:56.697Z,98403.52
2019-04-03T02:55:23.372Z,98417.38
2019-04-03T02:57:50.391Z,98409.09
2019-04-03T03:00:17.442Z,98412.14
2019-04-03T03:02:45.541Z,98411.47
2019-04-03T03:05:13.460Z,98413.47
2019-04-03T03:07:40.286Z,98410.19
2019-04-03T03:10:07.789Z,98407.44
2019-04-03T03:12:36.545Z,98411.39
2019-04-03T03:15:04.945Z,98410.42
2019-04-03T03:17:33.405Z,98411.52
2019-04-03T03:20:06.525Z,98400.51
2019-04-03T03:22:33.506Z,98408.10
2019-04-03T03:25:01.328Z,98414.45
2019-04-03T03:27:28.812Z,98414.52
2019-04-03T03:29:58.474Z,98418.36
2019-04-03T03:32:31.340Z,98406.98
2019-04-03T03:35:06.208Z,98401.27
2019-04-03T03:37:23.265Z,98401.75
2019-04-03T03:39:51.085Z,98400.08
2019-04-03T03:42:18.736Z,98406.77
2019-04-03T03:44:46.746Z,98406.75
2019-04-03T03:47:15.092Z,98410.22
2019-04-03T03:49:43.154Z,98407.67
2019-04-03T03:52:11.084Z,98412.05
2019-04-03T03:54:59.361Z,98405.69
2019-04-03T03:57:26.850Z,98410.14
2019-04-03T03:59:53.801Z,98403.46
2019-04-03T04:02:20.973Z,98403.53
2019-04-03T04:04:48.820Z,98406.81
2019-04-03T04:07:16.428Z,98409.24
2019-04-03T04:09:43.459Z,98406.47
2019-04-03T04:12:10.283Z,98399.48
2019-04-03T04:14:37.043Z,98406.18
2019-04-03T04:17:25.664Z,98408.33
2019-04-03T04:19:52.801Z,98404.77
2019-04-03T04:22:19.583Z,98399.83
2019-04-03T04:24:46.254Z,98400.95
2019-04-03T04:27:13.243Z,98401.28
2019-04-03T04:29:41.593Z,98404.02
2019-04-03T04:32:08.928Z,98404.78
2019-04-03T04:34:35.870Z,98408.19
2019-04-03T04:37:03.146Z,98414.23
2019-04-03T04:39:30.101Z,98412.41
2019-04-03T04:41:56.940Z,98401.81
2019-04-03T04:44:23.714Z,98405.83
2019-04-03T04:46:50.414Z,98406.18
2019-04-03T04:49:17.098Z,98401.05
2019-04-03T04:51:43.773Z,98403.39
2019-04-03T04:54:10.585Z,98402.64
2019-04-03T04:56:38.104Z,98400.91
2019-04-03T04:59:05.355Z,98398.41
2019-04-03T05:01:32.332Z,98399.86
2019-04-03T05:03:59.113Z,98398.64
2019-04-03T05:06:28.537Z,98398.57
2019-04-03T05:08:54.670Z,98399.23
2019-04-03T05:11:21.354Z,98403.62
2019-04-03T05:13:48.114Z,98401.52
2019-04-03T05:16:15.091Z,98395.83
2019-04-03T05:18:42.072Z,98401.20
2019-04-03T05:21:08.856Z,98404.23
2019-04-03T05:23:35.622Z,98399.67
2019-04-03T05:26:02.376Z,98401.83
2019-04-03T05:28:29.172Z,98408.81
2019-04-03T05:30:55.876Z,98415.79
2019-04-03T05:33:22.638Z,98415.03
2019-04-03T05:35:49.360Z,98416.44
2019-04-03T05:38:16.044Z,98419.46
2019-04-03T05:40:42.852Z,98418.02
2019-04-03T05:43:09.817Z,98420.31
2019-04-03T05:45:36.593Z,98420.69
2019-04-03T05:48:04.220Z,98421.72
2019-04-03T05:50:31.364Z,98422.70
2019-04-03T05:52:58.151Z,98425.77
2019-04-03T05:55:24.918Z,98424.47
2019-04-03T05:57:51.833Z,98426.69
2019-04-03T06:00:18.603Z,98431.70
2019-04-03T06:02:45.307Z,98439.11
2019-04-03T06:05:13.132Z,98441.07
2019-04-03T06:07:40.149Z,98448.91
2019-04-03T06:10:07.259Z,98445.51
2019-04-03T06:12:36.560Z,98446.87
2019-04-03T06:15:03.600Z,98446.04
2019-04-03T06:17:30.286Z,98445.18
2019-04-03T06:19:56.954Z,98435.88
2019-04-03T06:22:23.743Z,98435.80
2019-04-03T06:24:50.414Z,98431.15
2019-04-03T06:27:19.144Z,98428.67
2019-04-03T06:29:45.667Z,98427.19
2019-04-03T06:32:12.360Z,98428.61
2019-04-03T06:34:42.709Z,98421.22
2019-04-03T06:37:07.632Z,98417.35
2019-04-03T06:39:34.833Z,98415.63
2019-04-03T06:42:01.680Z,98416.47
2019-04-03T06:44:28.265Z,98411.92
2019-04-03T06:46:55.080Z,98416.31
2019-04-03T06:49:21.622Z,98418.23
2019-04-03T06:51:49.425Z,98416.63
2019-04-03T06:54:17.148Z,98413.56
2019-04-03T06:56:43.938Z,98412.38
2019-04-03T06:59:10.743Z,98406.06
2019-04-03T07:01:37.436Z,98398.81
2019-04-03T07:04:05.847Z,98393.58
2019-04-03T07:06:32.909Z,98399.64
2019-04-03T07:08:59.673Z,98389.97
2019-04-03T07:11:26.347Z,98393.84
2019-04-03T07:13:54.333Z,98396.75
2019-04-03T07:16:21.428Z,98396.84
2019-04-03T07:18:48.430Z,98390.82
2019-04-03T07:21:15.094Z,98401.38
2019-04-03T07:23:41.903Z,98405.17
2019-04-03T07:26:08.677Z,98398.12
2019-04-03T07:28:35.369Z,98401.02
2019-04-03T07:31:02.141Z,98398.23
2019-04-03T07:33:29.429Z,98404.01
2019-04-03T07:35:56.357Z,98401.84
2019-04-03T07:38:22.986Z,98400.40
2019-04-03T07:40:51.765Z,98396.95
2019-04-03T07:43:18.461Z,98398.16
2019-04-03T07:45:45.241Z,98388.25
2019-04-03T07:48:12.033Z,98397.47
2019-04-03T07:50:41.065Z,98393.78
2019-04-03T07:53:07.300Z,98392.51
2019-04-03T07:55:34.080Z,98401.10
2019-04-03T07:58:01.034Z,98407.55
2019-04-03T08:00:28.518Z,98402.02
2019-04-03T08:02:55.251Z,98400.56
2019-04-03T08:05:22.259Z,98399.94
2019-04-03T08:07:48.926Z,98404.85
2019-04-03T08:10:15.904Z,98406.09
2019-04-03T08:12:42.821Z,98403.94
2019-04-03T08:15:12.651Z,98410.97
2019-04-03T08:17:38.575Z,98403.49
2019-04-03T08:20:05.941Z,98410.56
2019-04-03T08:22:33.591Z,98413.73
2019-04-03T08:25:01.019Z,98410.63
2019-04-03T08:27:27.892Z,98397.03
2019-04-03T08:29:54.589Z,98416.57
2019-04-03T08:32:21.375Z,98423.23
2019-04-03T08:34:48.773Z,98412.81
2019-04-03T08:37:27.675Z,98408.48
2019-04-03T08:39:44.309Z,98405.97
2019-04-03T08:42:11.050Z,98408.13
2019-04-03T08:44:37.771Z,98420.46
2019-04-03T08:47:04.400Z,98410.22
2019-04-03T08:49:31.087Z,98416.37
2019-04-03T08:51:58.229Z,98416.45
2019-04-03T08:54:25.051Z,98422.34
2019-04-03T08:56:51.866Z,98411.98
2019-04-03T08:59:18.933Z,98412.22
2019-04-03T09:01:45.975Z,98409.01
2019-04-03T09:04:12.792Z,98410.88
2019-04-03T09:06:39.579Z,98417.77
2019-04-03T09:09:08.447Z,98410.25
2019-04-03T09:11:36.298Z,98404.11
2019-04-03T09:14:03.895Z,98411.88
2019-04-03T09:16:31.705Z,98403.80
2019-04-03T09:18:59.049Z,98405.48
2019-04-03T09:21:26.126Z,98393.30
2019-04-03T09:23:52.898Z,98398.96
2019-04-03T09:26:19.853Z,98387.88
2019-04-03T09:28:46.647Z,98385.95
2019-04-03T09:31:13.324Z,98387.02
2019-04-03T09:33:40.012Z,98382.91
2019-04-03T09:36:06.786Z,98385.22
2019-04-03T09:38:35.529Z,98381.23
2019-04-03T09:41:02.244Z,98378.93
2019-04-03T09:43:29.037Z,98386.83
2019-04-03T09:45:55.911Z,98387.27
2019-04-03T09:48:22.969Z,98382.97
2019-04-03T09:50:49.918Z,98382.98
2019-04-03T09:53:17.102Z,98379.41
2019-04-03T09:55:43.859Z,98377.67
2019-04-03T09:58:10.677Z,98376.61
2019-04-03T10:00:37.550Z,98373.62
2019-04-03T10:03:05.920Z,98369.87
2019-04-03T10:05:32.911Z,98367.81
2019-04-03T10:07:59.679Z,98366.16
2019-04-03T10:10:26.831Z,98363.68
2019-04-03T10:12:54.572Z,98359.92
2019-04-03T10:15:21.934Z,98353.22
2019-04-03T10:17:48.817Z,98348.29
2019-04-03T10:20:17.275Z,98348.29
2019-04-03T10:22:44.364Z,98345.16
2019-04-03T10:25:11.497Z,98352.80
2019-04-03T10:27:38.248Z,98341.17
2019-04-03T10:30:06.388Z,98344.66
2019-04-03T10:32:33.046Z,98337.58
2019-04-03T10:35:00.040Z,98324.92
2019-04-03T10:37:26.815Z,98337.70
2019-04-03T10:39:53.969Z,98330.30
2019-04-03T10:42:20.664Z,98318.52
2019-04-03T10:44:47.556Z,98329.69
2019-04-03T10:47:14.811Z,98323.78
2019-04-03T10:49:41.631Z,98327.97
2019-04-03T10:52:08.406Z,98319.86
2019-04-03T10:54:37.584Z,98313.23
2019-04-03T10:57:04.151Z,98311.52
2019-04-03T10:59:31.072Z,98311.95
2019-04-03T11:01:57.852Z,98311.00
2019-04-03T11:04:24.513Z,98309.10
2019-04-03T11:06:51.210Z,98313.24
2019-04-03T11:09:17.999Z,98313.34
2019-04-03T11:11:44.665Z,98315.17
2019-04-03T11:14:11.863Z,98309.09
2019-04-03T11:16:39.433Z,98297.73
2019-04-03T11:19:07.346Z,98302.95
2019-04-03T11:21:34.399Z,98279.44
2019-04-03T11:24:01.355Z,98297.38
2019-04-03T11:26:28.178Z,98304.54
2019-04-03T11:28:54.928Z,98307.83
2019-04-03T11:31:26.617Z,98301.53
2019-04-03T11:33:51.461Z,98301.65
2019-04-03T11:36:18.296Z,98301.53
2019-04-03T11:38:45.069Z,98309.94
2019-04-03T11:41:17.655Z,98294.73
2019-04-03T11:43:40.825Z,98290.09
2019-04-03T11:46:07.702Z,98288.66
2019-04-03T11:48:34.652Z,98295.13
2019-04-03T11:51:01.722Z,98289.69
2019-04-03T11:53:29.144Z,98291.08
2019-04-03T11:55:56.357Z,98288.24
2019-04-03T11:58:23.325Z,98277.95
2019-04-03T12:00:51.048Z,98273.88
2019-04-03T12:03:17.802Z,98274.78
2019-04-03T12:05:45.746Z,98279.90
2019-04-03T12:08:13.184Z,98279.61
2019-04-03T12:10:39.872Z,98274.07
2019-04-03T12:13:07.048Z,98282.20
2019-04-03T12:15:34.804Z,98273.30
2019-04-03T12:18:02.499Z,98268.84
2019-04-03T12:20:29.666Z,98263.20
2019-04-03T12:22:56.461Z,98268.39
2019-04-03T12:25:23.223Z,98255.72
2019-04-03T12:27:50.025Z,98272.99
2019-04-03T12:30:17.335Z,98246.48
2019-04-03T12:32:48.616Z,98256.81
2019-04-03T12:35:13.935Z,98255.37
2019-04-03T12:37:41.327Z,98253.52
2019-04-03T12:40:08.563Z,98249.71
2019-04-03T12:42:35.777Z,98239.63
2019-04-03T12:45:04.211Z,98237.73
2019-04-03T12:47:31.381Z,98236.36
2019-04-03T12:49:58.395Z,98242.64
2019-04-03T12:52:25.313Z,98233.23
2019-04-03T12:54:53.776Z,98235.55
2019-04-03T12:57:21.100Z,98250.64
2019-04-03T12:59:48.215Z,98285.55
2019-04-03T13:02:14.984Z,98298.25
2019-04-03T13:04:41.652Z,98301.61
2019-04-03T13:07:08.850Z,98303.38
2019-04-03T13:09:37.889Z,98295.90
2019-04-03T13:12:04.900Z,98296.98
2019-04-03T13:14:33.107Z,98301.58
2019-04-03T13:17:00.611Z,98303.25
2019-04-03T13:19:27.628Z,98318.73
2019-04-03T13:21:54.360Z,98322.73
2019-04-03T13:24:21.430Z,98329.98
2019-04-03T13:26:48.313Z,98332.06
2019-04-03T13:29:15.288Z,98326.21
2019-04-03T13:31:44.474Z,98331.17
2019-04-03T13:34:12.463Z,98335.89
2019-04-03T13:36:39.264Z,98328.30
2019-04-03T13:39:06.555Z,98339.94
2019-04-03T13:41:34.774Z,98334.94
2019-04-03T13:44:02.279Z,98339.60
2019-04-03T13:46:28.985Z,98332.97
2019-04-03T13:48:56.040Z,98341.88
2019-04-03T13:51:24.172Z,98351.20
2019-04-03T13:53:53.001Z,98357.63
2019-04-03T13:56:23.112Z,98364.34
2019-04-03T13:58:48.831Z,98364.27
2019-04-03T14:01:16.217Z,98376.39
2019-04-03T14:06:26.882Z,98360.77
2019-04-03T14:08:53.546Z,98357.78
2019-04-03T14:11:20.231Z,98335.56
2019-04-03T14:13:46.785Z,98317.33
2019-04-03T14:16:20.293Z,98321.73
2019-04-03T14:18:42.374Z,98309.05
2019-04-03T14:21:09.570Z,98309.47
2019-04-03T14:23:36.830Z,98308.02
2019-04-03T14:26:08.367Z,98302.73
2019-04-03T14:28:35.290Z,98298.45
2019-04-03T14:31:04.961Z,98286.48
2019-04-03T14:33:42.229Z,98276.73
2019-04-03T14:35:59.666Z,98278.77
2019-04-03T14:38:28.611Z,98266.78
2019-04-03T14:40:54.951Z,98262.05
2019-04-03T14:43:22.328Z,98251.55
2019-04-03T14:45:49.648Z,98258.73
2019-04-03T14:48:16.418Z,98247.55
2019-04-03T14:50:43.228Z,98238.51
2019-04-03T14:53:09.932Z,98239.81
2019-04-03T14:55:46.988Z,98245.08
2019-04-03T14:58:05.506Z,98250.14
2019-04-03T15:00:32.613Z,98261.80
2019-04-03T15:02:59.399Z,98259.27
2019-04-03T15:05:26.285Z,98261.80
2019-04-03T15:07:53.923Z,98269.50
2019-04-03T15:10:20.813Z,98262.86
2019-04-03T15:12:47.740Z,98245.94
2019-04-03T15:15:14.907Z,98227.73
2019-04-03T15:17:41.667Z,98226.44
2019-04-03T15:20:09.534Z,98220.06
2019-04-03T15:22:36.446Z,98213.66
2019-04-03T15:25:03.453Z,98221.21
2019-04-03T15:27:30.239Z,98224.28
2019-04-03T15:29:56.802Z,98246.27
2019-04-03T15:32:23.393Z,98237.65
2019-04-03T15:34:51.243Z,98229.75
2019-04-03T15:37:18.544Z,98243.81
2019-04-03T15:39:47.797Z,98244.88
2019-04-03T15:42:14.035Z,98234.13
2019-04-03T15:44:40.710Z,98238.80
2019-04-03T15:47:09.338Z,98239.11
2019-04-03T15:49:36.112Z,98230.70
2019-04-03T15:52:02.971Z,98226.72
2019-04-03T15:54:32.544Z,98219.23
2019-04-03T15:56:58.854Z,98200.86
2019-04-03T15:59:27.135Z,98206.82
2019-04-03T16:01:54.783Z,98202.28
2019-04-03T16:04:21.768Z,98210.02
2019-04-03T16:06:48.441Z,98202.20
2019-04-03T16:09:18.305Z,98215.31
2019-04-03T16:11:43.907Z,98164.25
2019-04-03T16:14:10.700Z,98200.27
2019-04-03T16:16:37.378Z,98204.11
2019-04-03T16:19:04.169Z,98198.94
2019-04-03T16:21:31.447Z,98194.37
2019-04-03T16:23:58.341Z,98188.86
2019-04-03T16:26:25.626Z,98194.55
2019-04-03T16:28:52.435Z,98207.26
2019-04-03T16:31:20.559Z,98203.27
2019-04-03T16:33:47.921Z,98202.40
2019-04-03T16:36:16.575Z,98206.06
2019-04-03T16:38:43.706Z,98207.72
2019-04-03T16:41:11.633Z,98212.34
2019-04-03T16:43:39.270Z,98218.47
2019-04-03T16:46:06.045Z,98218.41
2019-04-03T16:48:33.321Z,98213.97
2019-04-03T16:51:00.838Z,98221.98
2019-04-03T16:53:28.454Z,98213.88
2019-04-03T16:55:55.168Z,98221.89
2019-04-03T16:58:21.895Z,98215.23
2019-04-03T17:00:49.448Z,98209.45
2019-04-03T17:03:16.150Z,98215.84
2019-04-03T17:05:44.036Z,98211.19
2019-04-03T17:08:11.345Z,98217.75
2019-04-03T17:10:40.358Z,98217.87
2019-04-03T17:13:06.608Z,98190.69
2019-04-03T17:15:35.107Z,98207.38
2019-04-03T17:18:01.971Z,98206.86
2019-04-03T17:20:28.735Z,98207.55
2019-04-03T17:22:55.857Z,98195.88
2019-04-03T17:25:23.258Z,98191.51
2019-04-03T17:27:57.372Z,98191.53
2019-04-03T17:30:19.467Z,98185.56
2019-04-03T17:32:46.830Z,98178.58
2019-04-03T17:35:15.038Z,98170.77
2019-04-03T17:37:42.297Z,98159.75
2019-04-03T17:40:09.563Z,98157.84
2019-04-03T17:42:37.123Z,98161.59
2019-04-03T17:45:05.836Z,98141.02
2019-04-03T17:47:32.506Z,98145.56
2019-04-03T17:49:59.883Z,98151.84
2019-04-03T17:52:26.683Z,98155.59
2019-04-03T17:54:53.485Z,98149.95
2019-04-03T17:57:20.282Z,98148.50
2019-04-03T17:59:48.844Z,98151.09
2019-04-03T18:02:15.546Z,98134.91
2019-04-03T18:04:42.229Z,98131.17
2019-04-03T18:07:08.902Z,98143.63
2019-04-03T18:09:36.419Z,98150.42
2019-04-03T18:12:03.861Z,98152.52
2019-04-03T18:14:30.571Z,98144.60
2019-04-03T18:16:57.253Z,98129.53
2019-04-03T18:19:36.580Z,98123.55
2019-04-03T18:21:52.631Z,98133.94
2019-04-03T18:24:19.423Z,98149.14
2019-04-03T18:26:46.201Z,98141.52
2019-04-03T18:29:14.026Z,98143.45
2019-04-03T18:31:40.819Z,98142.00
2019-04-03T18:34:07.509Z,98138.13
2019-04-03T18:36:34.271Z,98145.39
2019-04-03T18:39:01.063Z,98142.02
2019-04-03T18:41:27.734Z,98129.55
2019-04-03T18:43:55.058Z,98115.14
2019-04-03T18:46:31.525Z,98113.20
2019-04-03T18:48:54.690Z,98086.19
2019-04-03T18:51:20.363Z,98077.11
2019-04-03T18:53:47.087Z,98080.03
2019-04-03T18:56:15.538Z,98077.92
2019-04-03T18:58:44.065Z,98069.04
2019-04-03T19:01:10.964Z,98073.08
2019-04-03T19:03:37.631Z,98070.83
2019-04-03T19:06:04.816Z,98081.99
2019-04-03T19:08:31.584Z,98073.91
2019-04-03T19:11:02.293Z,98065.31
2019-04-03T19:13:26.788Z,98076.62
2019-04-03T19:15:53.578Z,98088.77
2019-04-03T19:18:20.219Z,98098.16
2019-04-03T19:20:46.938Z,98096.86
2019-04-03T19:23:13.543Z,98105.59
2019-04-03T19:25:40.246Z,98090.53
2019-04-03T19:28:06.827Z,98104.94
2019-04-03T19:30:33.615Z,98103.00
2019-04-03T19:33:00.326Z,98102.52
2019-04-03T19:35:28.500Z,98088.57
2019-04-03T19:37:55.479Z,98062.36
2019-04-03T19:40:22.268Z,98053.47
2019-04-03T19:42:49.106Z,98063.34
2019-04-03T19:45:16.039Z,98064.95
2019-04-03T19:47:42.827Z,98086.47
2019-04-03T19:50:10.228Z,98099.91
2019-04-03T19:52:37.513Z,98101.50
2019-04-03T19:55:05.358Z,98105.71
2019-04-03T19:57:32.150Z,98127.70
2019-04-03T19:59:58.848Z,98155.47
2019-04-03T20:02:25.695Z,98177.27
2019-04-03T20:04:52.463Z,98192.69
2019-04-03T20:07:19.149Z,98183.89
2019-04-03T20:09:45.923Z,98221.34
2019-04-03T20:12:12.604Z,98222.91
2019-04-03T20:14:42.248Z,98223.03
2019-04-03T20:17:07.869Z,98227.34
2019-04-03T20:19:34.561Z,98240.65
2019-04-03T20:22:01.245Z,98240.52
2019-04-03T20:24:27.855Z,98241.63
2019-04-03T20:26:54.446Z,98249.36
2019-04-03T20:29:21.146Z,98241.89
2019-04-03T20:31:47.816Z,98263.12
2019-04-03T20:34:14.393Z,98257.98
2019-04-03T20:36:41.069Z,98260.45
2019-04-03T20:39:08.340Z,98260.86
2019-04-03T20:41:35.327Z,98280.64
2019-04-03T20:44:02.137Z,98236.61
2019-04-03T20:46:28.908Z,98248.34
2019-04-03T20:48:56.832Z,98251.34
2019-04-03T20:51:24.169Z,98239.94
2019-04-03T20:53:50.898Z,98229.70
2019-04-03T20:56:17.615Z,98240.55
2019-04-03T20:58:55.348Z,98263.48
2019-04-03T21:01:12.997Z,98289.02
2019-04-03T21:03:39.549Z,98301.50
2019-04-03T21:06:06.456Z,98305.55
2019-04-03T21:08:33.029Z,98306.08
2019-04-03T21:11:01.747Z,98305.80
2019-04-03T21:13:28.257Z,98302.29
2019-04-03T21:15:54.816Z,98301.40
2019-04-03T21:18:21.400Z,98305.55
2019-04-03T21:20:48.163Z,98312.92
2019-04-03T21:23:14.938Z,98324.82
2019-04-03T21:25:41.519Z,98319.31
2019-04-03T21:28:08.975Z,98305.80
2019-04-03T21:30:36.864Z,98300.09
2019-04-03T21:33:03.650Z,98292.53
2019-04-03T21:35:30.211Z,98268.30
2019-04-03T21:37:56.897Z,98268.89
2019-04-03T21:40:23.690Z,98263.78
2019-04-03T21:42:50.355Z,98282.48
2019-04-03T21:45:17.128Z,98273.36
2019-04-03T21:47:43.814Z,98270.73
2019-04-03T21:50:10.692Z,98270.36
2019-04-03T21:52:37.475Z,98267.88
2019-04-03T21:55:05.507Z,98266.91
2019-04-03T21:57:32.134Z,98263.39
2019-04-03T21:59:58.925Z,98256.83
2019-04-03T22:02:25.722Z,98262.16
2019-04-03T22:04:53.877Z,98266.44
2019-04-03T22:07:21.090Z,98267.99
2019-04-03T22:09:47.670Z,98262.14
2019-04-03T22:12:14.377Z,98262.25
2019-04-03T22:14:42.912Z,98257.00
2019-04-03T22:17:09.630Z,98250.18
2019-04-03T22:19:36.290Z,98222.91
2019-04-03T22:22:03.630Z,98189.71
2019-04-03T22:24:30.551Z,98162.47
2019-04-03T22:26:57.143Z,98177.89
2019-04-03T22:29:23.821Z,98185.05
2019-04-03T22:31:53.769Z,98190.81
2019-04-03T22:34:19.072Z,98190.58
2019-04-03T22:36:45.777Z,98199.84
2019-04-03T22:39:13.755Z,98205.90
2019-04-03T22:41:40.952Z,98213.86
2019-04-03T22:44:08.981Z,98206.30
2019-04-03T22:46:35.639Z,98206.28
2019-04-03T22:49:02.439Z,98207.71
2019-04-03T22:51:29.185Z,98204.61
2019-04-03T22:53:55.862Z,98205.84
2019-04-03T22:56:22.518Z,98205.43
2019-04-03T22:58:52.680Z,98215.83
2019-04-03T23:01:17.891Z,98214.83
2019-04-03T23:03:44.574Z,98196.78
2019-04-03T23:06:11.252Z,98189.63
2019-04-03T23:08:37.935Z,98198.21
2019-04-03T23:11:04.620Z,98224.00
2019-04-03T23:13:31.523Z,98222.41
2019-04-03T23:15:58.294Z,98228.13
2019-04-03T23:18:24.989Z,98245.24
2019-04-03T23:20:52.837Z,98251.77
2019-04-03T23:23:22.311Z,98237.08
2019-04-03T23:25:49.086Z,98231.70
2019-04-03T23:28:15.894Z,98218.64
2019-04-03T23:30:42.567Z,98225.80
2019-04-03T23:33:10.449Z,98219.77
2019-04-03T23:35:37.015Z,98216.66
2019-04-03T23:38:03.799Z,98218.27
2019-04-03T23:40:30.566Z,98226.32
2019-04-03T23:42:57.346Z,98220.11
2019-04-03T23:45:26.330Z,98209.49
2019-04-03T23:47:53.016Z,98180.83
2019-04-03T23:50:20.010Z,98143.03
2019-04-03T23:52:48.373Z,98144.61
2019-04-03T23:55:15.033Z,98154.72
2019-04-03T23:57:41.757Z,98155.78
